Terminal Aerodrome Forecast
Issued by NWS

Home | Current Version | Previous Version | Graphics & Text | Print | Product List | Glossary On
Versions: 1 2 3 4 5 6 7 8 9 10 11 12 13
311
FTUS43 KBIS 271507 AAA
TAFDIK
TAF AMD
KDIK 271507Z 2715/2812 12009KT P6SM SCT018
      TEMPO 2715/2717 BKN020
     FM271700 08010KT P6SM SCT025=

USA.gov is the U.S. government's official web portal to all federal, state and local government web resources and services.